Time;durP1;ratioP1;P1;durP2;ratioP2;P2;SDS_P1;SDS_P2;PMS_P1;PMS_P2;Temp;Humidity;BMP_temperature;BMP_pressure;BME280_temperature;BME280_humidity;BME280_pressure;Samples;Min_cycle;Max_cycle;Signal;HPM_P1;HPM_P2
2022/07/23 00:04:19;;;;;;;12.50;9.50;;;;;;;23.48;97.67;100446.48;660283;1277;139208;-84
2022/07/23 00:19:23;;;;;;;10.60;8.70;;;;;;;23.68;96.49;100455.80;659992;1275;139812;-84
2022/07/23 00:34:26;;;;;;;12.50;9.90;;;;;;;24.16;92.75;100453.31;659998;1277;138986;-82
2022/07/23 00:49:30;;;;;;;17.40;9.00;;;;;;;23.91;93.35;100455.69;659520;1277;138951;-84
2022/07/23 01:04:33;;;;;;;13.20;10.00;;;;;;;23.75;93.71;100456.79;658958;1277;139110;-84
2022/07/23 01:19:37;;;;;;;13.10;10.90;;;;;;;22.65;99.04;100458.85;659199;1276;139529;-84
2022/07/23 01:34:41;;;;;;;14.20;11.60;;;;;;;22.39;99.95;100458.77;658813;1276;139113;-84
2022/07/23 01:49:44;;;;;;;16.50;11.90;;;;;;;22.46;99.80;100456.69;658014;1277;141278;-84
2022/07/23 02:05:14;;;;;;;17.00;13.10;;;;;;;22.97;97.89;100455.45;658867;1277;139042;-84
2022/07/23 02:20:17;;;;;;;16.70;13.00;;;;;;;21.78;100.00;100455.05;659541;1277;140604;-85
2022/07/23 02:35:20;;;;;;;17.40;13.40;;;;;;;21.52;100.00;100441.77;658895;1277;139423;-83
2022/07/23 02:50:24;;;;;;;19.00;14.80;;;;;;;21.40;100.00;100436.89;658588;1276;139571;-83
2022/07/23 03:05:29;;;;;;;18.40;13.90;;;;;;;21.46;100.00;100438.70;659852;1277;139336;-83
2022/07/23 03:20:34;;;;;;;29.10;15.80;;;;;;;21.65;100.00;100435.59;659726;1277;139631;-84
2022/07/23 03:35:38;;;;;;;25.40;18.40;;;;;;;21.75;100.00;100428.19;659828;1277;140706;-83
2022/07/23 03:50:58;;;;;;;28.80;17.70;;;;;;;21.87;100.00;100428.73;659733;1277;139464;-84
2022/07/23 04:06:01;;;;;;;23.30;16.40;;;;;;;22.20;100.00;100438.63;657560;1277;22825;-83
2022/07/23 04:21:05;;;;;;;24.60;16.00;;;;;;;22.37;100.00;100438.80;656225;1277;23483;-83
2022/07/23 04:36:09;;;;;;;28.50;17.50;;;;;;;22.56;100.00;100450.25;656930;1277;25724;-83
2022/07/23 04:51:12;;;;;;;24.50;17.70;;;;;;;22.76;100.00;100445.98;657193;1277;313938;-84
2022/07/23 05:06:16;;;;;;;127.10;83.00;;;;;;;22.96;100.00;100423.77;657069;1277;25351;-83
2022/07/23 05:21:20;;;;;;;28.00;18.30;;;;;;;23.25;100.00;100404.40;655992;1277;22626;-83
2022/07/23 05:36:23;;;;;;;26.00;18.30;;;;;;;23.57;100.00;100400.66;656828;1276;27882;-84
2022/07/23 05:51:32;;;;;;;29.10;18.30;;;;;;;23.41;100.00;100414.49;660610;1277;139300;-84
2022/07/23 06:06:36;;;;;;;30.30;19.00;;;;;;;23.29;100.00;100415.31;658415;1277;139727;-83
2022/07/23 06:21:41;;;;;;;24.50;18.70;;;;;;;23.74;100.00;100400.92;659570;1277;139610;-83
2022/07/23 06:36:50;;;;;;;27.70;21.60;;;;;;;24.09;100.00;100414.53;660653;1276;140090;-83
2022/07/23 06:51:53;;;;;;;23.40;18.40;;;;;;;23.99;100.00;100416.84;659686;1276;140751;-86
2022/07/23 07:06:57;;;;;;;25.50;17.50;;;;;;;24.42;100.00;100411.00;657688;1276;24355;-84
2022/07/23 07:22:00;;;;;;;22.10;15.80;;;;;;;24.75;100.00;100402.20;661238;1276;141055;-84
2022/07/23 07:37:06;;;;;;;20.70;14.50;;;;;;;25.37;100.00;100388.35;660030;1276;140769;-83
2022/07/23 07:52:10;;;;;;;16.30;10.80;;;;;;;26.22;99.04;100386.29;660962;1276;140424;-83
2022/07/23 08:07:15;;;;;;;8.90;7.90;;;;;;;27.52;95.04;100382.69;662034;1276;140352;-83
2022/07/23 08:22:18;;;;;;;9.00;7.10;;;;;;;28.56;83.48;100378.04;659475;1276;140430;-84
2022/07/23 08:37:21;;;;;;;6.90;6.20;;;;;;;28.97;74.65;100370.60;656956;1277;140287;-84
2022/07/23 08:52:26;;;;;;;7.30;5.70;;;;;;;29.13;71.78;100366.73;656503;1277;26454;-83
2022/07/23 09:07:30;;;;;;;7.40;5.10;;;;;;;29.75;69.93;100353.09;659370;1277;24420;-85
2022/07/23 09:22:33;;;;;;;7.70;5.10;;;;;;;30.28;65.88;100352.13;657761;1276;22556;-84
2022/07/23 09:37:37;;;;;;;6.30;4.80;;;;;;;30.64;63.73;100352.91;658248;1276;24504;-85
2022/07/23 09:52:47;;;;;;;6.20;5.40;;;;;;;31.33;61.70;100346.94;657382;1275;25382;-86
2022/07/23 10:07:51;;;;;;;5.90;4.80;;;;;;;31.58;60.54;100349.73;657283;1276;22707;-87
2022/07/23 10:23:34;;;;;;;4.90;4.30;;;;;;;31.67;60.50;100339.56;658226;1276;24348;-85
2022/07/23 10:38:47;;;;;;;8.60;4.10;;;;;;;31.28;59.81;100346.13;657507;1276;23624;-90
2022/07/23 10:53:51;;;;;;;5.40;4.70;;;;;;;31.46;59.38;100346.64;657202;1276;22591;-90
2022/07/23 11:09:26;;;;;;;7.70;6.00;;;;;;;31.76;58.78;100356.38;660242;1277;22712;-88
2022/07/23 11:24:29;;;;;;;9.30;6.80;;;;;;;30.68;60.14;100359.13;657730;1279;25528;-84
2022/07/23 11:39:33;;;;;;;13.90;8.20;;;;;;;30.25;61.56;100374.80;658132;1278;22560;-84
2022/07/23 11:54:50;;;;;;;14.30;5.90;;;;;;;28.91;65.09;100376.85;658808;1278;22563;-84
2022/07/23 12:09:55;;;;;;;8.90;7.40;;;;;;;28.57;66.94;100364.17;657199;1277;24288;-83
2022/07/23 12:25:04;;;;;;;19.50;13.40;;;;;;;28.21;68.36;100378.79;657624;1277;23554;-83
2022/07/23 12:40:32;;;;;;;17.10;11.10;;;;;;;27.27;74.59;100398.92;658476;1279;25889;-89
2022/07/23 12:56:09;;;;;;;76.50;39.50;;;;;;;25.92;86.02;100396.20;658289;1278;22560;-89
2022/07/23 13:11:21;;;;;;;19.60;14.50;;;;;;;25.39;92.46;100384.65;660843;1277;138869;-90
2022/07/23 13:26:25;;;;;;;15.10;12.10;;;;;;;25.18;96.05;100376.58;659981;1277;140734;-88
2022/07/23 13:41:29;;;;;;;28.40;17.70;;;;;;;25.33;97.84;100388.80;658377;1278;141454;-91
2022/07/23 13:56:32;;;;;;;20.90;15.30;;;;;;;25.10;100.00;100402.50;662675;1275;139900;-89
2022/07/23 14:11:36;;;;;;;27.80;18.20;;;;;;;25.21;100.00;100410.73;659377;1277;139711;-88
2022/07/23 14:26:40;;;;;;;21.00;16.60;;;;;;;24.83;100.00;100394.46;657283;1278;140395;-90
2022/07/23 14:41:44;;;;;;;21.50;16.70;;;;;;;24.99;100.00;100377.86;656775;1277;139797;-89
2022/07/23 14:56:49;;;;;;;20.30;15.40;;;;;;;24.93;100.00;100369.70;656305;1278;140891;-88
2022/07/23 15:11:53;;;;;;;19.80;14.90;;;;;;;25.23;100.00;100345.55;659114;1277;141013;-87
2022/07/23 15:26:57;;;;;;;16.10;13.10;;;;;;;25.75;100.00;100339.27;667116;1277;139666;-87
2022/07/23 15:42:02;;;;;;;21.20;14.90;;;;;;;25.95;100.00;100336.69;656775;1277;139720;-89
2022/07/23 15:57:05;;;;;;;18.00;14.20;;;;;;;26.09;100.00;100333.94;655699;1277;139529;-85
2022/07/23 16:12:09;;;;;;;17.70;14.40;;;;;;;26.21;100.00;100329.30;657435;1277;139884;-85
2022/07/23 16:27:13;;;;;;;16.80;14.30;;;;;;;26.23;100.00;100320.98;659263;1277;139885;-85
2022/07/23 16:42:16;;;;;;;18.50;13.40;;;;;;;26.11;100.00;100318.01;656856;1279;351631;-85
2022/07/23 16:57:19;;;;;;;15.80;13.10;;;;;;;25.90;100.00;100301.89;658613;1277;140399;-85
2022/07/23 17:12:23;;;;;;;16.10;13.40;;;;;;;25.52;100.00;100291.55;657845;1277;139481;-85
2022/07/23 17:27:27;;;;;;;22.90;14.50;;;;;;;25.20;100.00;100299.48;658395;1278;140081;-85
2022/07/23 17:42:32;;;;;;;23.60;19.30;;;;;;;24.83;100.00;100301.95;657776;1278;139977;-86
2022/07/23 17:57:36;;;;;;;22.40;16.00;;;;;;;24.63;100.00;100291.23;658538;1277;140320;-86
2022/07/23 18:12:40;;;;;;;25.70;19.70;;;;;;;24.31;100.00;100286.21;660019;1277;140449;-86
2022/07/23 18:27:44;;;;;;;24.00;20.20;;;;;;;24.09;100.00;100284.88;656506;1277;139154;-88
2022/07/23 18:42:52;;;;;;;23.50;18.30;;;;;;;23.75;100.00;100285.70;658119;1277;139672;-88
2022/07/23 18:58:01;;;;;;;29.90;20.60;;;;;;;23.44;100.00;100285.17;659511;1277;139450;-86
2022/07/23 19:13:06;;;;;;;29.70;21.60;;;;;;;23.20;100.00;100299.74;657809;1278;140004;-87
2022/07/23 19:28:10;;;;;;;26.60;20.70;;;;;;;23.08;100.00;100309.58;657805;1277;141365;-86
2022/07/23 19:43:13;;;;;;;28.20;21.30;;;;;;;23.00;100.00;100326.90;659017;1277;139855;-88
2022/07/23 19:58:17;;;;;;;25.10;19.10;;;;;;;22.78;100.00;100330.67;658368;1277;139548;-88
2022/07/23 20:13:20;;;;;;;28.50;21.30;;;;;;;22.76;100.00;100339.77;657744;1277;139455;-86
2022/07/23 20:28:24;;;;;;;26.70;19.60;;;;;;;22.64;100.00;100342.31;661865;1277;139529;-88
2022/07/23 20:43:28;;;;;;;16.60;11.20;;;;;;;22.52;100.00;100361.70;658790;1277;140893;-89
2022/07/23 20:58:31;;;;;;;14.80;10.70;;;;;;;22.30;100.00;100386.24;657856;1277;139574;-89
2022/07/23 21:13:34;;;;;;;11.80;8.90;;;;;;;21.90;100.00;100409.66;657303;1277;139895;-88
2022/07/23 21:28:38;;;;;;;8.10;4.40;;;;;;;21.59;100.00;100436.84;657068;1277;140259;-89
2022/07/23 21:43:42;;;;;;;7.00;3.90;;;;;;;21.15;100.00;100469.62;655954;1277;139557;-88
2022/07/23 21:58:45;;;;;;;9.50;4.10;;;;;;;20.91;100.00;100479.21;657297;1277;139278;-88
2022/07/23 22:13:48;;;;;;;6.90;4.30;;;;;;;20.90;100.00;100476.83;657165;1277;139025;-88
2022/07/23 22:28:52;;;;;;;9.80;4.50;;;;;;;20.87;100.00;100479.29;657395;1277;139533;-88
2022/07/23 22:43:55;;;;;;;8.50;4.70;;;;;;;20.82;100.00;100488.98;655577;1277;139332;-89
2022/07/23 22:58:59;;;;;;;10.80;4.70;;;;;;;20.68;100.00;100500.67;655442;1277;139386;-89
2022/07/23 23:14:22;;;;;;;6.90;4.00;;;;;;;20.51;100.00;100501.98;656160;1277;139767;-89
2022/07/23 23:29:27;;;;;;;7.50;3.90;;;;;;;20.33;100.00;100500.88;656134;1277;139843;-89
2022/07/23 23:44:31;;;;;;;6.70;3.80;;;;;;;20.16;100.00;100495.89;655757;1279;139921;-88
2022/07/23 23:59:34;;;;;;;11.20;4.10;;;;;;;19.93;100.00;100491.15;657082;1277;139213;-88
